ALA735 EFHK-UGTB
Flight info
| Callsign | ALA735 |
|---|---|
| Flight time | N/A |
| Altitude | 39000 |
| Route | KOIVU Y123 LARTI Q77 GONOS DCT GATVA DCT DGP DCT SARPI DCT GIMUR |
| Aircraft | B772/H-SDE2E3FGHIJ5LORVWXY/LB1D1 |
Departure
| Time | 2026-05-05 12:15 |
|---|---|
| Airport | Helsinki Vantaa Airport (EFHK) |
Arrival
| Time | N/A |
|---|---|
| Airport | Tbilisi International Airport (UGTB) |
| Time | Latitude | Longitude | Altitude | Speed | Heading |
|---|---|---|---|---|---|
| 2026-05-05 11:19 | 60.31387 | 24.95859 | 195 ft | 0 kts | 328° |
| 2026-05-05 11:58 | 60.31383 | 24.95864 | 195 ft | 2 kts | 328° |
| 2026-05-05 11:58 | 60.31371 | 24.95879 | 195 ft | 1 kts | 328° |
| 2026-05-05 11:59 | 60.31363 | 24.95890 | 195 ft | 2 kts | 321° |
| 2026-05-05 11:59 | 60.31353 | 24.95912 | 195 ft | 2 kts | 300° |
| 2026-05-05 11:59 | 60.31347 | 24.95939 | 195 ft | 2 kts | 283° |
| 2026-05-05 11:59 | 60.31345 | 24.95969 | 195 ft | 2 kts | 266° |
| 2026-05-05 12:00 | 60.31348 | 24.95998 | 195 ft | 2 kts | 249° |
| 2026-05-05 12:00 | 60.31354 | 24.96024 | 195 ft | 1 kts | 232° |
| 2026-05-05 12:00 | 60.31354 | 24.96023 | 195 ft | 1 kts | 232° |
| 2026-05-05 12:00 | 60.31332 | 24.95968 | 195 ft | 7 kts | 229° |
| 2026-05-05 12:01 | 60.31295 | 24.95887 | 195 ft | 7 kts | 227° |
| 2026-05-05 12:01 | 60.31260 | 24.95808 | 195 ft | 6 kts | 227° |
| 2026-05-05 12:01 | 60.31241 | 24.95767 | 195 ft | 1 kts | 228° |
| 2026-05-05 12:01 | 60.31240 | 24.95764 | 195 ft | 0 kts | 228° |
| 2026-05-05 12:05 | 60.31239 | 24.95762 | 195 ft | 1 kts | 228° |
| 2026-05-05 12:05 | 60.31218 | 24.95716 | 195 ft | 6 kts | 227° |
| 2026-05-05 12:05 | 60.31189 | 24.95653 | 195 ft | 5 kts | 226° |
| 2026-05-05 12:05 | 60.31164 | 24.95593 | 195 ft | 6 kts | 244° |
| 2026-05-05 12:06 | 60.31173 | 24.95506 | 195 ft | 7 kts | 311° |
| 2026-05-05 12:06 | 60.31215 | 24.95424 | 195 ft | 9 kts | 318° |
| 2026-05-05 12:06 | 60.31267 | 24.95328 | 195 ft | 11 kts | 317° |
| 2026-05-05 12:06 | 60.31327 | 24.95216 | 195 ft | 11 kts | 318° |
| 2026-05-05 12:07 | 60.31384 | 24.95108 | 195 ft | 12 kts | 317° |
| 2026-05-05 12:07 | 60.31431 | 24.95011 | 195 ft | 8 kts | 313° |
| 2026-05-05 12:07 | 60.31487 | 24.94987 | 195 ft | 9 kts | 34° |
| 2026-05-05 12:07 | 60.31537 | 24.95096 | 195 ft | 11 kts | 48° |
| 2026-05-05 12:08 | 60.31594 | 24.95224 | 195 ft | 13 kts | 47° |
| 2026-05-05 12:08 | 60.31659 | 24.95366 | 195 ft | 14 kts | 47° |
| 2026-05-05 12:08 | 60.31729 | 24.95521 | 195 ft | 15 kts | 48° |
| 2026-05-05 12:08 | 60.31804 | 24.95685 | 195 ft | 13 kts | 47° |
| 2026-05-05 12:09 | 60.31867 | 24.95824 | 195 ft | 11 kts | 47° |
| 2026-05-05 12:09 | 60.31907 | 24.95913 | 195 ft | 4 kts | 47° |
| 2026-05-05 12:09 | 60.31912 | 24.95923 | 195 ft | 0 kts | 47° |
| 2026-05-05 12:09 | 60.31919 | 24.95937 | 195 ft | 3 kts | 40° |
| 2026-05-05 12:10 | 60.31955 | 24.95956 | 195 ft | 7 kts | 350° |
| 2026-05-05 12:10 | 60.32006 | 24.95883 | 195 ft | 10 kts | 316° |
| 2026-05-05 12:10 | 60.32070 | 24.95766 | 195 ft | 14 kts | 317° |
| 2026-05-05 12:10 | 60.32150 | 24.95616 | 195 ft | 16 kts | 317° |
| 2026-05-05 12:11 | 60.32237 | 24.95457 | 195 ft | 17 kts | 317° |
| 2026-05-05 12:11 | 60.32331 | 24.95294 | 195 ft | 18 kts | 327° |
| 2026-05-05 12:11 | 60.32448 | 24.95202 | 195 ft | 18 kts | 342° |
| 2026-05-05 12:11 | 60.32574 | 24.95119 | 195 ft | 19 kts | 342° |
| 2026-05-05 12:12 | 60.32703 | 24.95036 | 195 ft | 19 kts | 342° |
| 2026-05-05 12:12 | 60.32836 | 24.94947 | 195 ft | 20 kts | 342° |
| 2026-05-05 12:12 | 60.32955 | 24.94803 | 195 ft | 17 kts | 316° |
| 2026-05-05 12:12 | 60.33022 | 24.94673 | 195 ft | 10 kts | 312° |
| 2026-05-05 12:13 | 60.33046 | 24.94524 | 195 ft | 12 kts | 276° |
| 2026-05-05 12:13 | 60.33051 | 24.94347 | 195 ft | 13 kts | 272° |
| 2026-05-05 12:13 | 60.33021 | 24.94182 | 195 ft | 7 kts | 229° |
| 2026-05-05 12:13 | 60.33018 | 24.94175 | 195 ft | 0 kts | 228° |
| 2026-05-05 12:14 | 60.32894 | 24.93899 | 195 ft | 60 kts | 228° |
| 2026-05-05 12:14 | 60.32460 | 24.92952 | 195 ft | 122 kts | 227° |
| 2026-05-05 12:15 | 60.31771 | 24.91463 | 259 ft | 160 kts | 226° |
| 2026-05-05 12:15 | 60.31014 | 24.89932 | 830 ft | 156 kts | 231° |
| 2026-05-05 12:15 | 60.30255 | 24.88316 | 1358 ft | 164 kts | 231° |
| 2026-05-05 12:15 | 60.29445 | 24.86619 | 1868 ft | 174 kts | 231° |
| 2026-05-05 12:16 | 60.28581 | 24.84802 | 2290 ft | 190 kts | 231° |
| 2026-05-05 12:16 | 60.27630 | 24.82760 | 2667 ft | 211 kts | 233° |
| 2026-05-05 12:16 | 60.26859 | 24.80241 | 3200 ft | 218 kts | 253° |
| 2026-05-05 12:16 | 60.26564 | 24.77213 | 3683 ft | 230 kts | 272° |
| 2026-05-05 12:17 | 60.26759 | 24.73954 | 4188 ft | 241 kts | 278° |
| 2026-05-05 12:17 | 60.26762 | 24.70522 | 4554 ft | 252 kts | 258° |
| 2026-05-05 12:17 | 60.25992 | 24.67475 | 5519 ft | 251 kts | 232° |
| 2026-05-05 12:17 | 60.24741 | 24.64988 | 6244 ft | 258 kts | 227° |
| 2026-05-05 12:18 | 60.23436 | 24.62556 | 7179 ft | 256 kts | 227° |
| 2026-05-05 12:18 | 60.22150 | 24.60204 | 8034 ft | 254 kts | 227° |
| 2026-05-05 12:18 | 60.20837 | 24.57765 | 8779 ft | 257 kts | 227° |
| 2026-05-05 12:18 | 60.19572 | 24.55395 | 9785 ft | 249 kts | 228° |
| 2026-05-05 12:19 | 60.18315 | 24.53042 | 10452 ft | 253 kts | 228° |
| 2026-05-05 12:19 | 60.17000 | 24.50544 | 10736 ft | 270 kts | 228° |
| 2026-05-05 12:19 | 60.15619 | 24.47970 | 11231 ft | 281 kts | 224° |
| 2026-05-05 12:19 | 60.13958 | 24.45743 | 11761 ft | 294 kts | 214° |
| 2026-05-05 12:20 | 60.12040 | 24.44096 | 12119 ft | 314 kts | 205° |
| 2026-05-05 12:20 | 60.09809 | 24.43125 | 12367 ft | 339 kts | 194° |
| 2026-05-05 12:20 | 60.07386 | 24.43145 | 12655 ft | 364 kts | 182° |
| 2026-05-05 12:20 | 60.04874 | 24.44420 | 13266 ft | 381 kts | 167° |
| 2026-05-05 12:21 | 60.02493 | 24.46888 | 13862 ft | 394 kts | 159° |
| 2026-05-05 12:21 | 60.00119 | 24.49688 | 14306 ft | 402 kts | 159° |
| 2026-05-05 12:21 | 59.97672 | 24.52445 | 14809 ft | 406 kts | 160° |
| 2026-05-05 12:21 | 59.95193 | 24.55145 | 15556 ft | 405 kts | 161° |
| 2026-05-05 12:22 | 59.92714 | 24.57815 | 16261 ft | 404 kts | 161° |
| 2026-05-05 12:22 | 59.90231 | 24.60442 | 16806 ft | 409 kts | 161° |
| 2026-05-05 12:22 | 59.87659 | 24.62743 | 17239 ft | 405 kts | 170° |
| 2026-05-05 12:22 | 59.84970 | 24.64119 | 17684 ft | 400 kts | 180° |
| 2026-05-05 12:23 | 59.82221 | 24.64550 | 18247 ft | 392 kts | 189° |
| 2026-05-05 12:23 | 59.79534 | 24.64076 | 18813 ft | 385 kts | 198° |
| 2026-05-05 12:23 | 59.76971 | 24.62977 | 19169 ft | 375 kts | 201° |
| 2026-05-05 12:23 | 59.74416 | 24.61776 | 19379 ft | 387 kts | 201° |
| 2026-05-05 12:24 | 59.71776 | 24.60658 | 20032 ft | 391 kts | 197° |
| 2026-05-05 12:24 | 59.69053 | 24.60250 | 20715 ft | 399 kts | 188° |
| 2026-05-05 12:24 | 59.66252 | 24.60655 | 21191 ft | 412 kts | 180° |
| 2026-05-05 12:24 | 59.63396 | 24.61970 | 21650 ft | 428 kts | 171° |
| 2026-05-05 12:25 | 59.60627 | 24.64214 | 22130 ft | 441 kts | 163° |
| 2026-05-05 12:25 | 59.57896 | 24.66985 | 22697 ft | 444 kts | 162° |
| 2026-05-05 12:25 | 59.55145 | 24.69798 | 23193 ft | 447 kts | 162° |
| 2026-05-05 12:25 | 59.52380 | 24.72596 | 23655 ft | 450 kts | 162° |
| 2026-05-05 12:26 | 59.49596 | 24.75389 | 24135 ft | 453 kts | 162° |
| 2026-05-05 12:26 | 59.46791 | 24.78187 | 24637 ft | 455 kts | 162° |
| 2026-05-05 12:26 | 59.43970 | 24.80987 | 25107 ft | 458 kts | 162° |
| 2026-05-05 12:26 | 59.41156 | 24.84048 | 25541 ft | 469 kts | 155° |
| 2026-05-05 12:27 | 59.38524 | 24.87904 | 25963 ft | 479 kts | 149° |
| 2026-05-05 12:27 | 59.35936 | 24.92045 | 26347 ft | 484 kts | 148° |
| 2026-05-05 12:27 | 59.33349 | 24.96201 | 26715 ft | 488 kts | 148° |
| 2026-05-05 12:27 | 59.30747 | 25.00367 | 27164 ft | 490 kts | 148° |
| 2026-05-05 12:28 | 59.28097 | 25.04597 | 27638 ft | 491 kts | 148° |
| 2026-05-05 12:28 | 59.25460 | 25.08791 | 28053 ft | 493 kts | 148° |
| 2026-05-05 12:28 | 59.22790 | 25.13026 | 28423 ft | 496 kts | 148° |
| 2026-05-05 12:28 | 59.20124 | 25.17246 | 28806 ft | 499 kts | 148° |
| 2026-05-05 12:29 | 59.17411 | 25.21526 | 29148 ft | 502 kts | 148° |
| 2026-05-05 12:29 | 59.14700 | 25.25794 | 29478 ft | 505 kts | 148° |
| 2026-05-05 12:29 | 59.12004 | 25.30028 | 29876 ft | 506 kts | 148° |
| 2026-05-05 12:29 | 59.09256 | 25.34338 | 30295 ft | 507 kts | 147° |
| 2026-05-05 12:30 | 59.06508 | 25.38637 | 30789 ft | 506 kts | 147° |
| 2026-05-05 12:30 | 59.03794 | 25.42874 | 31292 ft | 504 kts | 147° |
| 2026-05-05 12:30 | 59.01055 | 25.47142 | 31765 ft | 503 kts | 147° |
| 2026-05-05 12:30 | 58.98346 | 25.51351 | 32232 ft | 502 kts | 147° |
| 2026-05-05 12:31 | 58.95608 | 25.55263 | 32673 ft | 494 kts | 154° |
| 2026-05-05 12:31 | 58.92586 | 25.58396 | 33093 ft | 484 kts | 163° |
| 2026-05-05 12:31 | 58.89567 | 25.60562 | 33437 ft | 479 kts | 168° |
| 2026-05-05 12:31 | 58.86357 | 25.62562 | 33837 ft | 478 kts | 169° |
| 2026-05-05 12:32 | 58.83232 | 25.64483 | 34262 ft | 477 kts | 169° |
| 2026-05-05 12:32 | 58.80059 | 25.66429 | 34728 ft | 475 kts | 169° |
| 2026-05-05 12:32 | 58.76967 | 25.68322 | 34997 ft | 475 kts | 169° |
| 2026-05-05 12:32 | 58.73814 | 25.70246 | 35186 ft | 476 kts | 169° |
| 2026-05-05 12:33 | 58.70640 | 25.72181 | 35404 ft | 475 kts | 169° |
| 2026-05-05 12:33 | 58.67536 | 25.74070 | 35605 ft | 475 kts | 169° |
| 2026-05-05 12:33 | 58.64391 | 25.75980 | 35784 ft | 475 kts | 169° |
| 2026-05-05 12:33 | 58.61317 | 25.77843 | 35955 ft | 476 kts | 169° |
| 2026-05-05 12:34 | 58.58137 | 25.79767 | 36109 ft | 476 kts | 169° |
| 2026-05-05 12:34 | 58.54987 | 25.81670 | 36355 ft | 476 kts | 169° |
| 2026-05-05 12:34 | 58.51879 | 25.83543 | 36576 ft | 476 kts | 169° |
| 2026-05-05 12:34 | 58.48742 | 25.85431 | 36786 ft | 477 kts | 169° |
| 2026-05-05 12:35 | 58.45746 | 25.87231 | 37019 ft | 476 kts | 169° |
| 2026-05-05 12:35 | 58.42593 | 25.89121 | 37266 ft | 476 kts | 168° |
| 2026-05-05 12:35 | 58.39498 | 25.90974 | 37479 ft | 475 kts | 168° |
| 2026-05-05 12:35 | 58.36366 | 25.92844 | 37658 ft | 476 kts | 169° |
| 2026-05-05 12:36 | 58.33246 | 25.94704 | 37854 ft | 476 kts | 168° |
| 2026-05-05 12:36 | 58.30112 | 25.96570 | 38047 ft | 475 kts | 168° |
| 2026-05-05 12:36 | 58.27062 | 25.98382 | 38219 ft | 475 kts | 168° |
| 2026-05-05 12:36 | 58.23891 | 26.00262 | 38428 ft | 474 kts | 168° |
| 2026-05-05 12:37 | 58.20768 | 26.02110 | 38605 ft | 474 kts | 168° |
| 2026-05-05 12:37 | 58.17644 | 26.03956 | 38731 ft | 474 kts | 168° |
| 2026-05-05 12:37 | 58.11412 | 26.07626 | 38819 ft | 475 kts | 168° |
| 2026-05-05 12:38 | 58.05159 | 26.11296 | 38814 ft | 475 kts | 168° |
| 2026-05-05 12:38 | 57.98966 | 26.14918 | 38800 ft | 475 kts | 168° |
| 2026-05-05 12:39 | 57.92691 | 26.18574 | 38817 ft | 476 kts | 168° |
| 2026-05-05 12:39 | 57.86495 | 26.22172 | 38818 ft | 474 kts | 168° |
| 2026-05-05 12:40 | 57.80218 | 26.25803 | 38816 ft | 474 kts | 168° |
| 2026-05-05 12:40 | 57.73955 | 26.29412 | 38818 ft | 475 kts | 168° |
| 2026-05-05 12:41 | 57.67634 | 26.33042 | 38810 ft | 474 kts | 168° |
| 2026-05-05 12:41 | 57.61440 | 26.36586 | 38813 ft | 474 kts | 169° |
| 2026-05-05 12:42 | 57.55062 | 26.39241 | 38829 ft | 467 kts | 179° |
| 2026-05-05 12:42 | 57.48664 | 26.40452 | 38810 ft | 465 kts | 180° |
| 2026-05-05 12:43 | 57.42290 | 26.41623 | 38818 ft | 466 kts | 180° |
| 2026-05-05 12:43 | 57.35881 | 26.42794 | 38816 ft | 465 kts | 180° |
| 2026-05-05 12:44 | 57.29505 | 26.43954 | 38806 ft | 465 kts | 180° |
| 2026-05-05 12:44 | 57.23193 | 26.45099 | 38811 ft | 463 kts | 180° |
| 2026-05-05 12:45 | 57.16788 | 26.46255 | 38812 ft | 465 kts | 180° |
| 2026-05-05 12:45 | 57.10429 | 26.47400 | 38813 ft | 464 kts | 180° |
| 2026-05-05 12:46 | 57.04053 | 26.48543 | 38797 ft | 464 kts | 180° |
| 2026-05-05 12:46 | 56.97693 | 26.49679 | 38807 ft | 465 kts | 180° |
| 2026-05-05 12:47 | 56.91332 | 26.50812 | 38823 ft | 465 kts | 180° |
| 2026-05-05 12:47 | 56.84901 | 26.51954 | 38816 ft | 465 kts | 180° |
| 2026-05-05 12:48 | 56.78510 | 26.53084 | 38828 ft | 465 kts | 180° |
| 2026-05-05 12:48 | 56.72159 | 26.54205 | 38831 ft | 463 kts | 180° |
| 2026-05-05 12:49 | 56.65741 | 26.55332 | 38838 ft | 464 kts | 180° |
| 2026-05-05 12:49 | 56.59366 | 26.56447 | 38835 ft | 465 kts | 180° |
| 2026-05-05 12:50 | 56.52959 | 26.57566 | 38828 ft | 464 kts | 180° |
| 2026-05-05 12:50 | 56.46630 | 26.58666 | 38843 ft | 466 kts | 180° |
| 2026-05-05 12:51 | 56.40229 | 26.59776 | 38839 ft | 464 kts | 179° |
| 2026-05-05 12:51 | 56.33886 | 26.60871 | 38841 ft | 466 kts | 179° |
| 2026-05-05 12:52 | 56.27491 | 26.61973 | 38835 ft | 464 kts | 180° |
| 2026-05-05 12:52 | 56.21149 | 26.63060 | 38835 ft | 465 kts | 179° |
| 2026-05-05 12:53 | 56.14758 | 26.64154 | 38850 ft | 464 kts | 179° |
| 2026-05-05 12:53 | 56.08495 | 26.65221 | 38824 ft | 465 kts | 180° |
| 2026-05-05 12:54 | 55.98924 | 26.67086 | 38833 ft | 469 kts | 173° |
| 2026-05-05 12:55 | 55.92796 | 26.71179 | 38834 ft | 482 kts | 156° |
| 2026-05-05 12:55 | 55.87458 | 26.78219 | 38844 ft | 492 kts | 145° |
| 2026-05-05 12:56 | 55.82276 | 26.85975 | 38842 ft | 492 kts | 145° |
| 2026-05-05 12:56 | 55.77041 | 26.93757 | 38845 ft | 492 kts | 145° |
| 2026-05-05 12:57 | 55.71842 | 27.01437 | 38848 ft | 493 kts | 145° |
| 2026-05-05 12:57 | 55.66634 | 27.09094 | 38848 ft | 491 kts | 145° |
| 2026-05-05 12:58 | 55.61414 | 27.16735 | 38854 ft | 493 kts | 145° |
| 2026-05-05 12:58 | 55.56184 | 27.24360 | 38855 ft | 493 kts | 145° |
| 2026-05-05 12:59 | 55.50943 | 27.31970 | 38854 ft | 493 kts | 145° |
| 2026-05-05 12:59 | 55.45704 | 27.39553 | 38859 ft | 492 kts | 144° |
| 2026-05-05 13:00 | 55.37822 | 27.50907 | 38863 ft | 492 kts | 145° |
| 2026-05-05 13:01 | 55.27327 | 27.65932 | 38868 ft | 492 kts | 146° |
| 2026-05-05 13:01 | 55.22073 | 27.73414 | 38858 ft | 492 kts | 146° |
| 2026-05-05 13:02 | 55.16781 | 27.80923 | 38867 ft | 492 kts | 146° |
| 2026-05-05 13:02 | 55.11568 | 27.88295 | 38892 ft | 491 kts | 145° |
| 2026-05-05 13:03 | 55.06285 | 27.95740 | 38868 ft | 492 kts | 145° |
| 2026-05-05 13:03 | 55.01070 | 28.03064 | 38866 ft | 490 kts | 145° |
| 2026-05-05 13:04 | 54.95802 | 28.10435 | 38857 ft | 491 kts | 145° |
| 2026-05-05 13:04 | 54.90479 | 28.17859 | 38857 ft | 490 kts | 145° |
| 2026-05-05 13:05 | 54.85218 | 28.25169 | 38862 ft | 490 kts | 145° |
| 2026-05-05 13:05 | 54.79965 | 28.32445 | 38862 ft | 489 kts | 145° |
| 2026-05-05 13:06 | 54.74662 | 28.39764 | 38864 ft | 491 kts | 144° |
| 2026-05-05 13:06 | 54.69350 | 28.47071 | 38877 ft | 489 kts | 144° |
| 2026-05-05 13:07 | 54.64118 | 28.54243 | 38871 ft | 489 kts | 144° |
| 2026-05-05 13:07 | 54.58817 | 28.61484 | 38871 ft | 489 kts | 144° |
| 2026-05-05 13:08 | 54.53544 | 28.68664 | 38856 ft | 487 kts | 145° |
| 2026-05-05 13:08 | 54.48286 | 28.75798 | 38863 ft | 487 kts | 145° |
| 2026-05-05 13:09 | 54.42980 | 28.82973 | 38869 ft | 488 kts | 145° |
| 2026-05-05 13:09 | 54.37689 | 28.90104 | 38864 ft | 487 kts | 145° |
| 2026-05-05 13:10 | 54.32482 | 28.97097 | 38870 ft | 486 kts | 144° |
| 2026-05-05 13:10 | 54.27200 | 29.04169 | 38866 ft | 485 kts | 144° |
| 2026-05-05 13:11 | 54.21910 | 29.11228 | 38863 ft | 483 kts | 144° |
| 2026-05-05 13:11 | 54.16629 | 29.18250 | 38873 ft | 484 kts | 144° |
| 2026-05-05 13:12 | 54.11458 | 29.25105 | 38881 ft | 482 kts | 144° |
| 2026-05-05 13:12 | 54.06174 | 29.32086 | 38875 ft | 481 kts | 144° |
| 2026-05-05 13:13 | 54.00967 | 29.38942 | 38870 ft | 481 kts | 144° |
| 2026-05-05 13:13 | 53.95703 | 29.45850 | 38872 ft | 479 kts | 143° |
| 2026-05-05 13:14 | 53.90426 | 29.52753 | 38868 ft | 480 kts | 144° |
| 2026-05-05 13:14 | 53.85152 | 29.59630 | 38877 ft | 480 kts | 143° |
| 2026-05-05 13:15 | 53.79850 | 29.66521 | 38881 ft | 480 kts | 144° |
| 2026-05-05 13:15 | 53.74560 | 29.73374 | 38880 ft | 480 kts | 144° |
| 2026-05-05 13:16 | 53.69295 | 29.80172 | 38876 ft | 480 kts | 144° |
| 2026-05-05 13:16 | 53.64022 | 29.86959 | 38880 ft | 479 kts | 144° |
| 2026-05-05 13:17 | 53.58683 | 29.93809 | 38878 ft | 481 kts | 144° |
| 2026-05-05 13:17 | 53.53406 | 30.00556 | 38883 ft | 481 kts | 144° |
| 2026-05-05 13:18 | 53.48094 | 30.07327 | 38880 ft | 482 kts | 144° |
| 2026-05-05 13:18 | 53.42774 | 30.14086 | 38872 ft | 481 kts | 144° |
| 2026-05-05 13:19 | 53.37429 | 30.20855 | 38881 ft | 484 kts | 144° |
| 2026-05-05 13:19 | 53.32105 | 30.27576 | 38874 ft | 483 kts | 144° |
| 2026-05-05 13:20 | 53.26756 | 30.34308 | 38878 ft | 484 kts | 144° |
| 2026-05-05 13:20 | 53.21407 | 30.41016 | 38882 ft | 485 kts | 144° |
| 2026-05-05 13:21 | 53.16001 | 30.47775 | 38878 ft | 485 kts | 144° |
| 2026-05-05 13:21 | 53.10643 | 30.54452 | 38882 ft | 486 kts | 144° |
| 2026-05-05 13:22 | 53.05259 | 30.61142 | 38885 ft | 485 kts | 144° |
| 2026-05-05 13:22 | 52.99871 | 30.67813 | 38881 ft | 485 kts | 144° |
| 2026-05-05 13:23 | 52.94452 | 30.74502 | 38881 ft | 485 kts | 144° |
| 2026-05-05 13:23 | 52.89063 | 30.81133 | 38897 ft | 485 kts | 144° |
| 2026-05-05 13:24 | 52.83671 | 30.87747 | 38899 ft | 486 kts | 144° |
| 2026-05-05 13:24 | 52.78251 | 30.94374 | 38903 ft | 485 kts | 144° |
| 2026-05-05 13:25 | 52.72813 | 31.01002 | 38906 ft | 485 kts | 144° |
| 2026-05-05 13:25 | 52.67426 | 31.07547 | 38909 ft | 482 kts | 144° |
| 2026-05-05 13:26 | 52.62052 | 31.14055 | 38911 ft | 483 kts | 144° |
| 2026-05-05 13:26 | 52.56643 | 31.20585 | 38911 ft | 482 kts | 144° |
| 2026-05-05 13:27 | 52.51243 | 31.27085 | 38910 ft | 482 kts | 144° |
| 2026-05-05 13:27 | 52.45824 | 31.33587 | 38905 ft | 481 kts | 144° |
| 2026-05-05 13:28 | 52.40419 | 31.40052 | 38899 ft | 482 kts | 144° |
| 2026-05-05 13:28 | 52.35039 | 31.46467 | 38905 ft | 481 kts | 144° |
| 2026-05-05 13:29 | 52.29651 | 31.52873 | 38908 ft | 480 kts | 144° |
| 2026-05-05 13:29 | 52.24268 | 31.59251 | 38906 ft | 479 kts | 144° |
| 2026-05-05 13:30 | 52.18902 | 31.65592 | 38911 ft | 479 kts | 145° |
| 2026-05-05 13:30 | 52.13493 | 31.71963 | 38912 ft | 479 kts | 145° |
| 2026-05-05 13:31 | 52.08111 | 31.78283 | 38918 ft | 479 kts | 145° |
| 2026-05-05 13:31 | 52.02716 | 31.84599 | 38918 ft | 479 kts | 145° |
| 2026-05-05 13:32 | 51.97334 | 31.90881 | 38925 ft | 479 kts | 145° |
| 2026-05-05 13:32 | 51.91948 | 31.97149 | 38927 ft | 478 kts | 145° |
| 2026-05-05 13:33 | 51.86556 | 32.03404 | 38926 ft | 480 kts | 144° |
| 2026-05-05 13:33 | 51.81158 | 32.09647 | 38931 ft | 481 kts | 144° |
| 2026-05-05 13:34 | 51.75703 | 32.15938 | 38934 ft | 480 kts | 144° |
| 2026-05-05 13:34 | 51.70286 | 32.22166 | 38932 ft | 479 kts | 144° |
| 2026-05-05 13:35 | 51.64847 | 32.28400 | 38940 ft | 481 kts | 144° |
| 2026-05-05 13:35 | 51.59460 | 32.34556 | 38938 ft | 480 kts | 144° |
| 2026-05-05 13:36 | 51.53991 | 32.40788 | 38942 ft | 480 kts | 144° |
| 2026-05-05 13:36 | 51.48581 | 32.46934 | 38940 ft | 480 kts | 144° |
| 2026-05-05 13:37 | 51.43163 | 32.53070 | 38941 ft | 480 kts | 144° |
| 2026-05-05 13:37 | 51.37733 | 32.59203 | 38946 ft | 480 kts | 144° |
| 2026-05-05 13:38 | 51.32274 | 32.65349 | 38950 ft | 480 kts | 145° |
| 2026-05-05 13:38 | 51.26861 | 32.71426 | 38947 ft | 479 kts | 144° |
| 2026-05-05 13:39 | 51.21411 | 32.77526 | 38955 ft | 478 kts | 144° |
| 2026-05-05 13:39 | 51.15977 | 32.83591 | 38947 ft | 476 kts | 144° |
| 2026-05-05 13:40 | 51.10552 | 32.89628 | 38953 ft | 478 kts | 144° |
| 2026-05-05 13:40 | 51.05121 | 32.95654 | 38954 ft | 478 kts | 144° |
| 2026-05-05 13:41 | 50.99697 | 33.01654 | 38963 ft | 478 kts | 144° |
| 2026-05-05 13:41 | 50.94244 | 33.07670 | 38967 ft | 478 kts | 144° |
| 2026-05-05 13:42 | 50.88810 | 33.13646 | 38972 ft | 477 kts | 144° |
| 2026-05-05 13:42 | 50.83351 | 33.19632 | 38976 ft | 478 kts | 144° |
| 2026-05-05 13:43 | 50.77898 | 33.25596 | 38981 ft | 477 kts | 144° |
| 2026-05-05 13:43 | 50.72453 | 33.31533 | 38981 ft | 477 kts | 144° |
| 2026-05-05 13:44 | 50.67027 | 33.37432 | 38980 ft | 476 kts | 144° |
| 2026-05-05 13:44 | 50.61581 | 33.43336 | 38982 ft | 476 kts | 144° |
| 2026-05-05 13:45 | 50.56132 | 33.49226 | 38983 ft | 476 kts | 144° |
| 2026-05-05 13:45 | 50.50706 | 33.55076 | 38984 ft | 476 kts | 144° |
| 2026-05-05 13:46 | 50.45280 | 33.60908 | 38984 ft | 475 kts | 144° |
| 2026-05-05 13:46 | 50.39849 | 33.66730 | 38988 ft | 476 kts | 145° |
| 2026-05-05 13:47 | 50.34383 | 33.72572 | 38988 ft | 475 kts | 145° |
| 2026-05-05 13:47 | 50.28947 | 33.78366 | 38989 ft | 475 kts | 145° |
| 2026-05-05 13:48 | 50.23503 | 33.84152 | 38995 ft | 474 kts | 145° |
| 2026-05-05 13:48 | 50.18078 | 33.89902 | 38996 ft | 474 kts | 145° |
| 2026-05-05 13:49 | 50.12609 | 33.95681 | 38993 ft | 474 kts | 145° |
| 2026-05-05 13:49 | 50.07191 | 34.01392 | 38996 ft | 474 kts | 145° |
| 2026-05-05 13:50 | 50.01752 | 34.07108 | 39003 ft | 472 kts | 145° |
| 2026-05-05 13:50 | 49.96330 | 34.12791 | 39004 ft | 471 kts | 145° |
| 2026-05-05 13:51 | 49.90888 | 34.18479 | 39003 ft | 473 kts | 145° |
| 2026-05-05 13:51 | 49.85492 | 34.24103 | 39006 ft | 474 kts | 145° |
| 2026-05-05 13:52 | 49.80045 | 34.29765 | 39004 ft | 473 kts | 145° |
| 2026-05-05 13:52 | 49.74580 | 34.35430 | 39006 ft | 474 kts | 145° |
| 2026-05-05 13:53 | 49.69130 | 34.41063 | 39004 ft | 473 kts | 145° |
| 2026-05-05 13:53 | 49.63659 | 34.46704 | 39009 ft | 473 kts | 145° |
| 2026-05-05 13:54 | 49.58208 | 34.52308 | 39012 ft | 473 kts | 145° |
| 2026-05-05 13:54 | 49.52729 | 34.57925 | 39012 ft | 474 kts | 145° |
| 2026-05-05 13:55 | 49.47272 | 34.63506 | 39011 ft | 473 kts | 145° |
| 2026-05-05 13:55 | 49.41790 | 34.69095 | 39012 ft | 475 kts | 146° |
| 2026-05-05 13:56 | 49.36313 | 34.74665 | 39016 ft | 473 kts | 146° |
| 2026-05-05 13:56 | 49.30828 | 34.80227 | 39014 ft | 473 kts | 146° |
| 2026-05-05 13:57 | 49.25351 | 34.85767 | 39013 ft | 473 kts | 146° |
| 2026-05-05 13:57 | 49.19886 | 34.91279 | 39018 ft | 473 kts | 146° |
| 2026-05-05 13:58 | 49.14401 | 34.96797 | 39012 ft | 473 kts | 146° |
| 2026-05-05 13:58 | 49.08970 | 35.02246 | 39011 ft | 473 kts | 146° |
| 2026-05-05 13:59 | 49.00753 | 35.10463 | 39019 ft | 473 kts | 146° |
| 2026-05-05 14:00 | 48.92565 | 35.18618 | 39013 ft | 473 kts | 145° |
| 2026-05-05 14:00 | 48.87228 | 35.23915 | 39020 ft | 473 kts | 145° |
| 2026-05-05 14:01 | 48.81767 | 35.29322 | 39013 ft | 473 kts | 145° |
| 2026-05-05 14:01 | 48.76323 | 35.34698 | 39013 ft | 473 kts | 145° |
| 2026-05-05 14:02 | 48.70867 | 35.40071 | 39020 ft | 473 kts | 145° |
| 2026-05-05 14:02 | 48.65398 | 35.45444 | 39017 ft | 473 kts | 145° |
| 2026-05-05 14:03 | 48.59913 | 35.50818 | 39013 ft | 473 kts | 145° |
| 2026-05-05 14:03 | 48.54451 | 35.56154 | 39009 ft | 473 kts | 145° |
| 2026-05-05 14:04 | 48.48968 | 35.61498 | 39012 ft | 473 kts | 145° |
| 2026-05-05 14:04 | 48.43581 | 35.66736 | 39018 ft | 473 kts | 146° |
| 2026-05-05 14:05 | 48.38106 | 35.72043 | 39013 ft | 473 kts | 146° |
| 2026-05-05 14:05 | 48.32614 | 35.77355 | 39018 ft | 473 kts | 146° |
| 2026-05-05 14:06 | 48.27150 | 35.82625 | 39012 ft | 473 kts | 146° |
| 2026-05-05 14:06 | 48.21744 | 35.87826 | 39021 ft | 473 kts | 146° |
| 2026-05-05 14:07 | 48.16289 | 35.93060 | 39016 ft | 473 kts | 146° |
| 2026-05-05 14:07 | 48.10823 | 35.98293 | 39013 ft | 473 kts | 146° |
| 2026-05-05 14:08 | 48.05461 | 36.03412 | 39001 ft | 474 kts | 146° |
| 2026-05-05 14:08 | 48.00101 | 36.08517 | 39013 ft | 474 kts | 146° |
| 2026-05-05 14:09 | 47.94636 | 36.13708 | 39015 ft | 474 kts | 146° |
| 2026-05-05 14:09 | 47.89174 | 36.18884 | 39039 ft | 474 kts | 145° |
| 2026-05-05 14:10 | 47.83632 | 36.24121 | 39019 ft | 473 kts | 145° |
| 2026-05-05 14:10 | 47.78098 | 36.29339 | 38998 ft | 473 kts | 146° |
| 2026-05-05 14:11 | 47.72639 | 36.34472 | 39016 ft | 474 kts | 146° |
| 2026-05-05 14:11 | 47.67105 | 36.39663 | 39025 ft | 474 kts | 145° |
| 2026-05-05 14:12 | 47.61605 | 36.44808 | 39035 ft | 473 kts | 145° |
| 2026-05-05 14:12 | 47.56068 | 36.49976 | 39027 ft | 472 kts | 145° |
| 2026-05-05 14:13 | 47.50532 | 36.55129 | 39020 ft | 473 kts | 145° |
| 2026-05-05 14:13 | 47.44945 | 36.60316 | 39024 ft | 473 kts | 145° |
| 2026-05-05 14:14 | 47.39397 | 36.65454 | 39009 ft | 472 kts | 146° |
| 2026-05-05 14:14 | 47.34255 | 36.70206 | 39036 ft | 474 kts | 146° |
| 2026-05-05 14:15 | 47.28686 | 36.75337 | 39027 ft | 473 kts | 146° |
| 2026-05-05 14:15 | 47.23136 | 36.80440 | 39041 ft | 474 kts | 146° |
| 2026-05-05 14:16 | 47.17607 | 36.85511 | 39028 ft | 473 kts | 146° |
| 2026-05-05 14:16 | 47.12059 | 36.90585 | 39019 ft | 473 kts | 146° |
| 2026-05-05 14:17 | 47.06523 | 36.95638 | 39044 ft | 474 kts | 146° |
| 2026-05-05 14:17 | 47.00988 | 37.00676 | 39024 ft | 473 kts | 146° |
| 2026-05-05 14:18 | 46.95490 | 37.05668 | 39020 ft | 473 kts | 146° |
| 2026-05-05 14:18 | 46.89943 | 37.10693 | 39020 ft | 472 kts | 146° |
| 2026-05-05 14:19 | 46.84443 | 37.15662 | 39025 ft | 473 kts | 146° |
| 2026-05-05 14:19 | 46.78819 | 37.20731 | 39028 ft | 473 kts | 146° |
| 2026-05-05 14:20 | 46.73275 | 37.25716 | 39024 ft | 473 kts | 146° |
| 2026-05-05 14:20 | 46.67717 | 37.30701 | 39015 ft | 472 kts | 146° |
| 2026-05-05 14:21 | 46.62153 | 37.35679 | 39021 ft | 473 kts | 146° |
| 2026-05-05 14:21 | 46.56600 | 37.40635 | 39023 ft | 472 kts | 146° |
| 2026-05-05 14:22 | 46.50971 | 37.45647 | 39018 ft | 473 kts | 146° |
| 2026-05-05 14:22 | 46.45383 | 37.50610 | 39021 ft | 473 kts | 146° |
| 2026-05-05 14:23 | 46.39764 | 37.55589 | 39022 ft | 473 kts | 146° |
| 2026-05-05 14:23 | 46.34143 | 37.60556 | 39015 ft | 473 kts | 146° |
| 2026-05-05 14:24 | 46.28508 | 37.65525 | 39017 ft | 476 kts | 147° |
| 2026-05-05 14:24 | 46.25384 | 37.68274 | 39013 ft | 475 kts | 147° |
| 2026-05-05 14:25 | 46.20015 | 37.72990 | 39020 ft | 475 kts | 147° |
| 2026-05-05 14:25 | 46.14389 | 37.77921 | 39017 ft | 474 kts | 147° |
| 2026-05-05 14:26 | 46.08780 | 37.82824 | 39013 ft | 474 kts | 147° |
| 2026-05-05 14:26 | 46.03155 | 37.87730 | 39007 ft | 475 kts | 147° |
| 2026-05-05 14:27 | 45.97513 | 37.92639 | 39015 ft | 477 kts | 147° |
| 2026-05-05 14:27 | 45.91826 | 37.97574 | 39001 ft | 476 kts | 147° |
| 2026-05-05 14:28 | 45.86190 | 38.02454 | 39009 ft | 477 kts | 147° |
| 2026-05-05 14:28 | 45.80513 | 38.07357 | 38991 ft | 477 kts | 147° |
| 2026-05-05 14:29 | 45.74885 | 38.12207 | 38995 ft | 476 kts | 147° |
| 2026-05-05 14:29 | 45.69310 | 38.17000 | 38990 ft | 477 kts | 147° |
| 2026-05-05 14:30 | 45.63697 | 38.21814 | 38989 ft | 477 kts | 147° |
| 2026-05-05 14:30 | 45.58122 | 38.26583 | 39009 ft | 477 kts | 147° |
| 2026-05-05 14:31 | 45.52519 | 38.31366 | 38997 ft | 476 kts | 147° |
| 2026-05-05 14:31 | 45.46953 | 38.36106 | 38991 ft | 478 kts | 147° |
| 2026-05-05 14:32 | 45.41271 | 38.40933 | 38988 ft | 477 kts | 147° |
| 2026-05-05 14:32 | 45.35665 | 38.45685 | 38992 ft | 477 kts | 148° |
| 2026-05-05 14:33 | 45.30021 | 38.50457 | 38988 ft | 478 kts | 148° |
| 2026-05-05 14:33 | 45.24338 | 38.55252 | 38978 ft | 477 kts | 148° |
| 2026-05-05 14:34 | 45.18744 | 38.59961 | 38987 ft | 479 kts | 148° |
| 2026-05-05 14:34 | 45.13054 | 38.64738 | 38982 ft | 478 kts | 148° |
| 2026-05-05 14:35 | 45.07498 | 38.69393 | 38991 ft | 479 kts | 149° |
| 2026-05-05 14:35 | 45.01874 | 38.74093 | 38984 ft | 478 kts | 149° |
| 2026-05-05 14:36 | 44.96175 | 38.78846 | 38984 ft | 480 kts | 149° |
| 2026-05-05 14:36 | 44.90562 | 38.83515 | 38985 ft | 479 kts | 149° |
| 2026-05-05 14:37 | 44.84826 | 38.88276 | 38986 ft | 477 kts | 149° |
| 2026-05-05 14:38 | 44.68077 | 39.02115 | 38982 ft | 479 kts | 149° |
| 2026-05-05 14:39 | 44.62403 | 39.06783 | 38979 ft | 479 kts | 149° |
| 2026-05-05 14:39 | 44.56701 | 39.11462 | 38976 ft | 480 kts | 149° |
| 2026-05-05 14:40 | 44.51060 | 39.16080 | 38976 ft | 478 kts | 149° |
| 2026-05-05 14:40 | 44.45432 | 39.20678 | 38975 ft | 479 kts | 149° |
| 2026-05-05 14:41 | 44.39843 | 39.25234 | 38974 ft | 477 kts | 149° |
| 2026-05-05 14:41 | 44.34126 | 39.29883 | 38969 ft | 479 kts | 149° |
| 2026-05-05 14:42 | 44.28572 | 39.34389 | 38968 ft | 480 kts | 149° |
| 2026-05-05 14:42 | 44.22980 | 39.38916 | 38967 ft | 480 kts | 149° |
| 2026-05-05 14:43 | 44.17263 | 39.43535 | 38965 ft | 479 kts | 149° |
| 2026-05-05 14:43 | 44.11654 | 39.48055 | 38963 ft | 480 kts | 149° |
| 2026-05-05 14:44 | 44.05900 | 39.52683 | 38966 ft | 481 kts | 149° |
| 2026-05-05 14:44 | 44.00238 | 39.57226 | 38965 ft | 481 kts | 149° |
| 2026-05-05 14:45 | 43.94508 | 39.61813 | 38967 ft | 479 kts | 149° |
| 2026-05-05 14:45 | 43.89032 | 39.66187 | 38970 ft | 480 kts | 150° |
| 2026-05-05 14:46 | 43.83622 | 39.70500 | 38971 ft | 481 kts | 150° |
| 2026-05-05 14:46 | 43.78013 | 39.74961 | 38974 ft | 481 kts | 150° |
| 2026-05-05 14:47 | 43.72287 | 39.79507 | 38980 ft | 481 kts | 150° |
| 2026-05-05 14:47 | 43.66579 | 39.84026 | 38978 ft | 481 kts | 150° |
| 2026-05-05 14:48 | 43.60780 | 39.88609 | 38972 ft | 480 kts | 150° |
| 2026-05-05 14:48 | 43.55163 | 39.93037 | 38972 ft | 479 kts | 150° |
| 2026-05-05 14:49 | 43.49504 | 39.97489 | 38974 ft | 480 kts | 150° |
| 2026-05-05 14:49 | 43.43843 | 40.01933 | 38974 ft | 478 kts | 150° |
| 2026-05-05 14:50 | 43.38108 | 40.06424 | 38971 ft | 479 kts | 150° |
| 2026-05-05 14:50 | 43.32435 | 40.10858 | 38971 ft | 480 kts | 151° |
| 2026-05-05 14:51 | 43.26810 | 40.15245 | 38969 ft | 480 kts | 151° |
| 2026-05-05 14:51 | 43.21094 | 40.19693 | 38969 ft | 479 kts | 151° |
| 2026-05-05 14:52 | 43.15347 | 40.24155 | 38964 ft | 477 kts | 151° |
| 2026-05-05 14:52 | 43.09766 | 40.28479 | 38969 ft | 477 kts | 151° |
| 2026-05-05 14:53 | 43.04030 | 40.32914 | 38969 ft | 476 kts | 151° |
| 2026-05-05 14:53 | 42.98355 | 40.37293 | 38967 ft | 476 kts | 151° |
| 2026-05-05 14:54 | 42.92582 | 40.41736 | 38972 ft | 479 kts | 151° |
| 2026-05-05 14:54 | 42.86871 | 40.46123 | 38973 ft | 479 kts | 151° |
| 2026-05-05 14:55 | 42.81199 | 40.50471 | 38976 ft | 477 kts | 151° |
| 2026-05-05 14:55 | 42.75524 | 40.54812 | 38977 ft | 477 kts | 151° |
| 2026-05-05 14:56 | 42.69746 | 40.59221 | 38979 ft | 476 kts | 151° |
| 2026-05-05 14:56 | 42.64052 | 40.63558 | 38977 ft | 476 kts | 152° |
| 2026-05-05 14:57 | 42.58355 | 40.67888 | 38980 ft | 475 kts | 152° |
| 2026-05-05 14:57 | 42.52678 | 40.72194 | 38980 ft | 476 kts | 152° |
| 2026-05-05 14:58 | 42.46910 | 40.76559 | 38981 ft | 476 kts | 152° |
| 2026-05-05 14:58 | 42.41256 | 40.80829 | 38979 ft | 476 kts | 152° |
| 2026-05-05 14:59 | 42.35473 | 40.85187 | 38986 ft | 475 kts | 152° |
| 2026-05-05 14:59 | 42.30188 | 40.89162 | 38981 ft | 476 kts | 153° |
| 2026-05-05 15:00 | 42.24649 | 40.93320 | 38987 ft | 475 kts | 153° |
| 2026-05-05 15:00 | 42.17981 | 40.98314 | 38984 ft | 474 kts | 153° |
| 2026-05-05 15:01 | 42.12233 | 41.02609 | 38988 ft | 474 kts | 153° |
| 2026-05-05 15:01 | 42.06587 | 41.06819 | 38984 ft | 473 kts | 153° |
| 2026-05-05 15:02 | 42.00854 | 41.11084 | 38990 ft | 473 kts | 153° |
| 2026-05-05 15:02 | 41.95358 | 41.15167 | 38990 ft | 473 kts | 153° |
| 2026-05-05 15:03 | 41.89650 | 41.19397 | 38988 ft | 473 kts | 153° |
| 2026-05-05 15:03 | 41.85223 | 41.22672 | 39000 ft | 473 kts | 153° |